Time;durP1;ratioP1;P1;durP2;ratioP2;P2;SDS_P1;SDS_P2;PMS_P1;PMS_P2;Temp;Humidity;BMP_temperature;BMP_pressure;BME280_temperature;BME280_humidity;BME280_pressure;Samples;Min_cycle;Max_cycle;Signal;HPM_P1;HPM_P2
2023/04/02 00:01:02;;;;;;;1.98;1.30;;;10.00;70.60;;;;;;5031239;28;20038;-61
2023/04/02 00:03:58;;;;;;;1.30;1.15;;;9.90;70.80;;;;;;5055477;28;20244;-61
2023/04/02 00:06:31;;;;;;;1.48;0.90;;;9.90;71.10;;;;;;5024025;28;20040;-64
2023/04/02 00:09:13;;;;;;;4.07;0.90;;;9.90;70.70;;;;;;5022600;28;20018;-61
2023/04/02 00:11:48;;;;;;;5.03;0.75;;;9.90;70.50;;;;;;5027633;28;20295;-61
2023/04/02 00:14:26;;;;;;;2.05;1.00;;;9.80;70.50;;;;;;5037285;28;20114;-61
2023/04/02 00:16:54;;;;;;;1.38;1.00;;;9.80;70.60;;;;;;5023235;28;20042;-61
2023/04/02 00:19:36;;;;;;;2.17;0.90;;;9.80;70.60;;;;;;5030520;28;20030;-62
2023/04/02 00:22:05;;;;;;;2.63;1.35;;;9.70;70.90;;;;;;5020750;28;20030;-61
2023/04/02 00:24:32;;;;;;;8.77;1.13;;;9.70;70.70;;;;;;5022089;28;20109;-61
2023/04/02 00:26:57;;;;;;;1.08;0.75;;;9.70;70.90;;;;;;5033303;28;20113;-61
2023/04/02 00:29:23;;;;;;;1.63;1.10;;;9.60;70.80;;;;;;5031313;28;20033;-62
2023/04/02 00:31:51;;;;;;;2.78;1.20;;;9.60;70.80;;;;;;5022723;28;20034;-63
2023/04/02 00:34:24;;;;;;;1.98;1.27;;;9.60;70.90;;;;;;5028283;28;20033;-62
2023/04/02 00:36:52;;;;;;;2.20;1.17;;;9.60;71.00;;;;;;5021209;28;20067;-62
2023/04/02 00:39:27;;;;;;;2.38;1.40;;;9.50;70.80;;;;;;5024797;28;20027;-61
2023/04/02 00:42:03;;;;;;;1.48;1.38;;;9.50;71.00;;;;;;5029498;28;20095;-62
2023/04/02 00:44:31;;;;;;;4.47;1.75;;;9.50;70.80;;;;;;5029969;28;20093;-61
2023/04/02 00:47:03;;;;;;;5.05;2.30;;;9.50;70.80;;;;;;5029479;28;20041;-61
2023/04/02 00:49:35;;;;;;;7.38;2.67;;;9.40;70.70;;;;;;5024760;28;20025;-61
2023/04/02 00:52:12;;;;;;;9.32;2.60;;;9.40;70.80;;;;;;5017001;28;20081;-63
2023/04/02 00:54:55;;;;;;;5.00;2.63;;;9.40;70.80;;;;;;5026721;28;20048;-62
2023/04/02 00:57:24;;;;;;;7.25;2.33;;;9.30;70.80;;;;;;5018829;28;20414;-62
2023/04/02 01:00:06;;;;;;;4.90;2.08;;;9.30;70.70;;;;;;5030370;28;20026;-61
2023/04/02 01:02:37;;;;;;;3.15;1.65;;;9.30;70.80;;;;;;5029786;28;20029;-62
2023/04/02 01:05:14;;;;;;;3.53;1.70;;;9.20;70.70;;;;;;5020432;28;20041;-62
2023/04/02 01:08:06;;;;;;;4.70;2.30;;;9.20;71.20;;;;;;5019047;28;20030;-61
2023/04/02 01:11:02;;;;;;;2.42;1.70;;;9.20;71.40;;;;;;5019964;28;20029;-61
2023/04/02 01:14:00;;;;;;;3.53;1.88;;;9.10;71.50;;;;;;5021142;28;20029;-61
2023/04/02 01:16:29;;;;;;;2.65;1.45;;;9.10;71.60;;;;;;5027204;28;20053;-61
2023/04/02 01:19:12;;;;;;;2.45;1.20;;;9.10;71.30;;;;;;5029028;28;20034;-61
2023/04/02 01:22:08;;;;;;;2.20;1.30;;;9.10;71.50;;;;;;5027260;28;20024;-61
2023/04/02 01:24:36;;;;;;;1.25;1.10;;;9.10;71.90;;;;;;5018353;28;20022;-62
2023/04/02 01:27:07;;;;;;;1.08;0.98;;;9.20;71.50;;;;;;5031017;28;20033;-62
2023/04/02 01:29:45;;;;;;;0.93;0.90;;;9.20;71.60;;;;;;5023030;28;20022;-62
2023/04/02 01:32:14;;;;;;;1.25;0.80;;;9.20;71.70;;;;;;5030363;28;20029;-61
2023/04/02 01:34:43;;;;;;;2.95;0.93;;;9.20;71.50;;;;;;5026957;28;20027;-61
2023/04/02 01:37:35;;;;;;;0.90;0.70;;;9.20;71.50;;;;;;5026593;28;20080;-62
2023/04/02 01:40:18;;;;;;;1.30;0.80;;;9.20;71.80;;;;;;5017817;28;20034;-61
2023/04/02 01:43:07;;;;;;;3.60;0.80;;;9.20;71.60;;;;;;5022968;28;20033;-62
2023/04/02 01:45:33;;;;;;;1.08;0.80;;;9.20;71.70;;;;;;5020236;28;20033;-61
2023/04/02 01:48:04;;;;;;;0.68;0.68;;;9.20;71.30;;;;;;5030093;28;20042;-63
2023/04/02 01:50:35;;;;;;;3.05;1.00;;;9.20;71.30;;;;;;5022049;28;20045;-62
2023/04/02 01:53:07;;;;;;;1.80;0.70;;;9.20;71.20;;;;;;5025045;28;20041;-61
2023/04/02 01:55:54;;;;;;;1.85;0.90;;;9.20;71.10;;;;;;5024705;28;20046;-61
2023/04/02 01:58:26;;;;;;;1.13;0.77;;;9.20;71.30;;;;;;5019249;28;20034;-61
2023/04/02 02:00:57;;;;;;;1.17;0.70;;;9.20;71.00;;;;;;5020883;28;20033;-62
2023/04/02 02:03:23;;;;;;;1.27;0.80;;;9.20;71.10;;;;;;5023017;28;20049;-63
2023/04/02 02:05:50;;;;;;;2.25;1.00;;;9.20;71.10;;;;;;5025819;28;20037;-64
2023/04/02 02:08:27;;;;;;;0.95;0.80;;;9.20;71.10;;;;;;5023124;28;20048;-61
2023/04/02 02:10:53;;;;;;;0.90;0.70;;;9.10;71.40;;;;;;5024331;28;20033;-61
2023/04/02 02:13:20;;;;;;;3.00;0.80;;;9.10;71.10;;;;;;5024868;28;20030;-62
2023/04/02 02:15:46;;;;;;;1.38;0.80;;;9.20;71.30;;;;;;5025570;28;20048;-62
2023/04/02 02:18:15;;;;;;;2.17;0.70;;;9.10;71.30;;;;;;5023364;28;20025;-61
2023/04/02 02:20:41;;;;;;;2.78;0.55;;;9.10;71.30;;;;;;5016386;28;20018;-61
2023/04/02 02:23:11;;;;;;;1.52;0.70;;;9.10;71.30;;;;;;5022623;28;20032;-61
2023/04/02 02:25:37;;;;;;;1.63;0.63;;;9.20;71.40;;;;;;5024607;28;20033;-61
2023/04/02 02:28:17;;;;;;;1.55;0.80;;;9.20;71.40;;;;;;5025793;28;20033;-61
2023/04/02 02:31:01;;;;;;;3.67;0.80;;;9.20;71.30;;;;;;5021406;28;20032;-63
2023/04/02 02:33:31;;;;;;;0.60;0.60;;;9.20;71.30;;;;;;5028087;28;20048;-62
2023/04/02 02:36:12;;;;;;;1.80;0.70;;;9.20;71.20;;;;;;5026621;28;20073;-62
2023/04/02 02:38:52;;;;;;;0.50;0.50;;;9.20;71.20;;;;;;5027899;28;20086;-63
2023/04/02 02:41:23;;;;;;;0.60;0.60;;;9.20;71.20;;;;;;5017614;28;20046;-61
2023/04/02 02:44:07;;;;;;;1.45;0.68;;;9.20;71.00;;;;;;5020460;28;20449;-61
2023/04/02 02:46:35;;;;;;;1.80;0.75;;;9.20;71.60;;;;;;5023304;28;20029;-61
2023/04/02 02:49:03;;;;;;;2.85;0.60;;;9.20;71.20;;;;;;5016959;28;20059;-61
2023/04/02 02:51:51;;;;;;;2.67;0.70;;;9.20;71.30;;;;;;5026945;28;20036;-61
2023/04/02 02:54:18;;;;;;;0.85;0.63;;;9.20;71.80;;;;;;5013589;28;20492;-62
2023/04/02 02:56:53;;;;;;;3.00;0.70;;;9.20;71.40;;;;;;5017812;28;20094;-63
2023/04/02 02:59:20;;;;;;;1.00;0.90;;;9.20;71.60;;;;;;5026590;28;20038;-62
2023/04/02 03:01:46;;;;;;;0.82;0.70;;;9.20;71.60;;;;;;5040407;28;20117;-62
2023/04/02 03:04:13;;;;;;;2.35;0.60;;;9.20;71.60;;;;;;5057032;28;20041;-61
2023/04/02 03:06:39;;;;;;;0.88;0.60;;;9.20;71.50;;;;;;5025152;28;20041;-61
2023/04/02 03:09:27;;;;;;;0.60;0.57;;;9.20;71.30;;;;;;5023890;28;20036;-62
2023/04/02 03:12:02;;;;;;;0.80;0.50;;;9.30;71.70;;;;;;5017870;28;20549;-62
2023/04/02 03:14:42;;;;;;;0.50;0.50;;;9.30;71.40;;;;;;5024342;28;20022;-61
2023/04/02 03:17:25;;;;;;;0.85;0.70;;;9.30;71.40;;;;;;5024597;28;20033;-63
2023/04/02 03:20:14;;;;;;;0.93;0.60;;;9.30;71.10;;;;;;5026388;28;20034;-62
2023/04/02 03:22:48;;;;;;;0.90;0.70;;;9.30;71.00;;;;;;5020945;28;20077;-61
2023/04/02 03:25:23;;;;;;;1.25;0.80;;;9.30;70.70;;;;;;5049426;28;20033;-61
2023/04/02 03:27:52;;;;;;;1.50;0.60;;;9.30;70.70;;;;;;5056975;28;20128;-62
2023/04/02 03:30:27;;;;;;;5.75;0.70;;;9.30;70.70;;;;;;5024900;28;20034;-61
2023/04/02 03:32:56;;;;;;;;;;;9.20;70.70;;;;;;5025169;28;20037;-62
2023/04/02 03:35:31;;;;;;;1.05;0.60;;;9.30;71.10;;;;;;5024847;28;19921;-62
2023/04/02 03:38:04;;;;;;;3.28;0.73;;;9.30;70.70;;;;;;5030429;28;20133;-62
2023/04/02 03:40:42;;;;;;;0.70;0.70;;;9.30;70.90;;;;;;5016327;28;20397;-60
2023/04/02 03:43:20;;;;;;;1.95;0.55;;;9.30;71.10;;;;;;5032571;28;20037;-61
2023/04/02 03:45:56;;;;;;;0.52;0.52;;;9.30;71.00;;;;;;5047096;28;20093;-62
2023/04/02 03:48:43;;;;;;;2.72;0.73;;;9.30;70.90;;;;;;5023198;28;20089;-63
2023/04/02 03:51:30;;;;;;;1.05;0.60;;;9.30;71.00;;;;;;5026819;28;20033;-62
2023/04/02 03:53:56;;;;;;;1.23;0.60;;;9.30;70.90;;;;;;5023689;28;20018;-61
2023/04/02 03:56:26;;;;;;;0.60;0.60;;;9.30;70.70;;;;;;5022586;28;20053;-62
2023/04/02 03:59:11;;;;;;;1.02;0.50;;;9.30;70.70;;;;;;5027006;28;20094;-62
2023/04/02 04:01:44;;;;;;;2.67;0.70;;;9.30;70.70;;;;;;5027792;28;20097;-62
2023/04/02 04:04:17;;;;;;;4.18;0.77;;;9.30;70.60;;;;;;5028040;28;20109;-62
2023/04/02 04:06:46;;;;;;;1.17;0.70;;;9.20;70.50;;;;;;5027053;28;20041;-63
2023/04/02 04:09:21;;;;;;;0.65;0.57;;;9.20;70.40;;;;;;5018119;28;20030;-61
2023/04/02 04:12:29;;;;;;;1.33;1.00;;;9.20;70.70;;;;;;5021433;28;20059;-61
2023/04/02 04:15:05;;;;;;;2.70;1.23;;;9.20;70.60;;;;;;5019514;28;20516;-61
2023/04/02 04:17:39;;;;;;;0.55;0.55;;;9.20;70.60;;;;;;5026203;28;20057;-60
2023/04/02 04:20:20;;;;;;;1.15;0.80;;;9.10;70.40;;;;;;5035140;28;20053;-63
2023/04/02 04:22:48;;;;;;;0.60;0.60;;;9.10;70.70;;;;;;5033567;28;20033;-61
2023/04/02 04:25:32;;;;;;;3.42;0.60;;;9.10;70.60;;;;;;5027560;28;20030;-63
2023/04/02 04:28:23;;;;;;;0.55;0.47;;;9.10;70.90;;;;;;5032701;28;20026;-62
2023/04/02 04:31:00;;;;;;;0.90;0.70;;;9.10;71.00;;;;;;5031201;28;20056;-61
2023/04/02 04:33:33;;;;;;;2.35;0.55;;;9.00;70.70;;;;;;5030852;28;20014;-61
2023/04/02 04:36:01;;;;;;;2.00;0.70;;;9.00;70.80;;;;;;5026221;28;20137;-62
2023/04/02 04:38:34;;;;;;;1.23;0.52;;;9.10;70.90;;;;;;5034057;28;20030;-62
2023/04/02 04:41:14;;;;;;;1.08;0.60;;;9.00;71.00;;;;;;4919633;28;20573;-63
2023/04/02 04:43:50;;;;;;;1.38;0.60;;;9.00;71.20;;;;;;5064408;28;20045;-60
2023/04/02 04:46:39;;;;;;;1.23;0.70;;;9.00;71.20;;;;;;5025057;28;20068;-62
2023/04/02 04:49:11;;;;;;;0.77;0.57;;;9.00;71.20;;;;;;5029774;28;20045;-62
2023/04/02 04:51:58;;;;;;;0.70;0.60;;;9.00;71.10;;;;;;5022564;28;20029;-61
2023/04/02 04:54:26;;;;;;;0.60;0.50;;;9.00;71.40;;;;;;5022676;28;20048;-61
2023/04/02 04:56:59;;;;;;;1.05;0.60;;;9.00;71.10;;;;;;5028186;28;20041;-61
2023/04/02 04:59:27;;;;;;;2.63;1.10;;;9.00;71.30;;;;;;5031022;28;20081;-61
2023/04/02 05:02:10;;;;;;;1.52;0.68;;;9.00;71.30;;;;;;5021357;28;20830;-61
2023/04/02 05:04:41;;;;;;;1.73;0.75;;;9.00;71.80;;;;;;5030208;28;20021;-60
2023/04/02 05:07:16;;;;;;;0.98;0.75;;;9.00;71.70;;;;;;5060854;28;20021;-61
2023/04/02 05:09:52;;;;;;;1.27;0.63;;;9.00;71.70;;;;;;5023723;28;20061;-62
2023/04/02 05:12:40;;;;;;;1.63;0.68;;;9.00;71.80;;;;;;5038954;28;20029;-62
2023/04/02 05:15:27;;;;;;;0.93;0.60;;;9.00;71.90;;;;;;5030434;28;20022;-62
2023/04/02 05:17:59;;;;;;;2.20;0.88;;;9.10;72.00;;;;;;5029660;28;20033;-63
2023/04/02 05:20:27;;;;;;;0.95;0.90;;;9.10;71.80;;;;;;5025066;28;20057;-62
2023/04/02 05:23:14;;;;;;;3.30;0.80;;;9.00;71.70;;;;;;5021784;28;20022;-62
2023/04/02 05:25:50;;;;;;;2.60;1.00;;;9.10;72.20;;;;;;5025048;28;20018;-62
2023/04/02 05:28:58;;;;;;;1.92;1.00;;;9.10;71.90;;;;;;5028950;28;20035;-63
2023/04/02 05:31:31;;;;;;;1.33;0.80;;;9.10;71.90;;;;;;5022636;28;20060;-61
2023/04/02 05:33:57;;;;;;;1.58;0.85;;;9.10;71.60;;;;;;5046910;28;20029;-62
2023/04/02 05:36:28;;;;;;;2.17;1.27;;;9.20;71.60;;;;;;5024966;28;20037;-61
2023/04/02 05:38:56;;;;;;;2.45;1.40;;;9.10;71.80;;;;;;5027450;28;20023;-61
2023/04/02 05:41:37;;;;;;;1.38;0.82;;;9.20;71.80;;;;;;5023951;28;20923;-61
2023/04/02 05:44:09;;;;;;;2.40;0.75;;;9.20;71.90;;;;;;5020482;28;20025;-61
2023/04/02 05:46:50;;;;;;;1.25;1.10;;;9.20;71.70;;;;;;5024137;28;20029;-61
2023/04/02 05:49:39;;;;;;;2.35;1.30;;;9.20;71.60;;;;;;5021661;28;20026;-61
2023/04/02 05:52:11;;;;;;;1.65;1.23;;;9.30;71.70;;;;;;5023885;28;20029;-62
2023/04/02 05:54:42;;;;;;;1.77;1.13;;;9.30;71.60;;;;;;5028347;28;20034;-61
2023/04/02 05:57:13;;;;;;;1.20;0.82;;;9.30;71.70;;;;;;5026651;28;20078;-62
2023/04/02 05:59:46;;;;;;;1.00;0.80;;;9.30;71.70;;;;;;5024196;28;20025;-61
2023/04/02 06:02:23;;;;;;;1.30;1.00;;;9.40;71.80;;;;;;5058601;28;20105;-63
2023/04/02 06:04:51;;;;;;;1.45;1.10;;;9.40;71.70;;;;;;5025088;28;20022;-63
2023/04/02 06:07:24;;;;;;;3.42;1.50;;;9.50;71.70;;;;;;5021922;28;20033;-64
2023/04/02 06:10:03;;;;;;;2.35;1.38;;;9.50;71.70;;;;;;5023565;28;20030;-62
2023/04/02 06:12:41;;;;;;;1.23;1.00;;;9.60;71.60;;;;;;5019955;28;20033;-63
2023/04/02 06:15:20;;;;;;;3.05;1.30;;;9.60;71.50;;;;;;5020208;28;20022;-64
2023/04/02 06:18:04;;;;;;;1.75;1.08;;;9.70;71.40;;;;;;5060321;28;20032;-64
2023/04/02 06:20:30;;;;;;;;;;;9.70;71.50;;;;;;5022727;28;20025;-64
2023/04/02 06:23:18;;;;;;;1.92;1.00;;;9.80;71.50;;;;;;5027285;28;19948;-64
2023/04/02 06:26:02;;;;;;;2.65;1.10;;;9.80;70.80;;;;;;5021272;28;20026;-62
2023/04/02 06:28:46;;;;;;;1.75;0.80;;;9.90;70.80;;;;;;5017681;28;20166;-63
2023/04/02 06:31:21;;;;;;;3.33;0.98;;;9.90;70.90;;;;;;5029566;28;20086;-65
2023/04/02 06:33:51;;;;;;;;;;;10.00;71.00;;;;;;5022638;28;20035;-63
2023/04/02 06:36:18;;;;;;;1.80;1.00;;;10.00;71.00;;;;;;5021438;28;19918;-64
2023/04/02 06:38:46;;;;;;;1.95;0.80;;;10.10;70.80;;;;;;5021292;28;20049;-62
2023/04/02 06:41:20;;;;;;;1.50;0.80;;;10.20;70.90;;;;;;5015795;28;20022;-63
2023/04/02 06:44:00;;;;;;;1.60;0.87;;;10.20;71.00;;;;;;5021677;28;20092;-62
2023/04/02 06:46:25;;;;;;;1.02;0.93;;;10.30;71.10;;;;;;5038081;28;20368;-63
2023/04/02 06:48:55;;;;;;;1.67;0.90;;;10.40;71.00;;;;;;5023889;28;20086;-63
2023/04/02 06:51:23;;;;;;;2.22;1.10;;;10.50;70.80;;;;;;5024663;28;20088;-64
2023/04/02 06:53:50;;;;;;;3.83;1.30;;;10.50;70.70;;;;;;5016818;28;20057;-65
2023/04/02 06:56:45;;;;;;;1.52;1.00;;;10.60;70.70;;;;;;5028715;28;20029;-64
2023/04/02 06:59:11;;;;;;;;;;;10.70;70.70;;;;;;5019246;28;20034;-63
2023/04/02 07:02:15;;;;;;;1.17;0.90;;;10.80;70.60;;;;;;5019433;28;19924;-63
2023/04/02 07:04:41;;;;;;;1.25;0.95;;;10.90;70.10;;;;;;5020733;28;20113;-63
2023/04/02 07:07:07;;;;;;;1.33;0.95;;;10.90;70.00;;;;;;5039326;28;20081;-64
2023/04/02 07:09:32;;;;;;;1.33;1.02;;;10.90;70.00;;;;;;5038342;28;20033;-62
2023/04/02 07:12:00;;;;;;;0.73;0.70;;;11.00;70.10;;;;;;5022695;28;20066;-64
2023/04/02 07:14:26;;;;;;;1.45;0.90;;;11.00;69.90;;;;;;5022452;28;20072;-63
2023/04/02 07:16:52;;;;;;;2.00;0.80;;;11.10;69.90;;;;;;5018780;28;20416;-64
2023/04/02 07:19:21;;;;;;;1.60;1.00;;;11.10;70.10;;;;;;5024869;28;20093;-64
2023/04/02 07:21:50;;;;;;;1.88;1.27;;;11.20;70.10;;;;;;5057381;28;20036;-64
2023/04/02 07:24:15;;;;;;;2.85;1.00;;;11.20;69.90;;;;;;5025633;28;20475;-63
2023/04/02 07:26:41;;;;;;;1.58;0.95;;;11.20;69.90;;;;;;5027246;28;20053;-64
2023/04/02 07:29:12;;;;;;;1.35;0.80;;;11.30;70.10;;;;;;5036061;28;20033;-63
2023/04/02 07:31:39;;;;;;;2.13;0.80;;;11.40;70.00;;;;;;5022771;28;20038;-63
2023/04/02 07:34:06;;;;;;;2.88;1.10;;;11.40;70.10;;;;;;5031179;28;20025;-64
2023/04/02 07:36:32;;;;;;;2.95;1.20;;;11.50;70.00;;;;;;5025089;28;20054;-63
2023/04/02 07:38:58;;;;;;;1.15;1.05;;;11.50;70.00;;;;;;5030626;28;20040;-63
2023/04/02 07:41:23;;;;;;;1.48;1.13;;;11.60;70.00;;;;;;5034202;28;20089;-64
2023/04/02 07:43:50;;;;;;;1.17;0.95;;;11.70;69.80;;;;;;5049401;28;20149;-64
2023/04/02 07:46:16;;;;;;;3.92;1.30;;;11.70;69.50;;;;;;5024120;28;20036;-63
2023/04/02 07:48:43;;;;;;;6.65;1.10;;;11.80;69.40;;;;;;5024633;28;20113;-65
2023/04/02 07:51:22;;;;;;;1.80;0.98;;;11.90;69.30;;;;;;5054968;28;20037;-64
2023/04/02 07:53:54;;;;;;;2.65;1.15;;;11.90;69.00;;;;;;5023677;28;20116;-63
2023/04/02 07:56:21;;;;;;;4.32;1.02;;;12.00;69.00;;;;;;5048612;28;20042;-64
2023/04/02 07:58:47;;;;;;;1.88;1.00;;;12.00;68.80;;;;;;5028170;28;20049;-63
2023/04/02 08:01:26;;;;;;;1.65;1.00;;;12.00;69.40;;;;;;5017386;28;20038;-63
2023/04/02 08:03:56;;;;;;;2.75;1.98;;;12.10;68.70;;;;;;5028330;28;20045;-65
2023/04/02 08:06:22;;;;;;;2.78;0.90;;;12.10;68.60;;;;;;5052543;28;20057;-63
2023/04/02 08:08:49;;;;;;;2.22;0.75;;;12.20;68.80;;;;;;5016912;28;20030;-62
2023/04/02 08:11:15;;;;;;;4.15;1.13;;;12.20;68.60;;;;;;5018435;28;20089;-65
2023/04/02 08:13:41;;;;;;;1.60;0.70;;;12.20;68.80;;;;;;5031312;28;20499;-63
2023/04/02 08:16:07;;;;;;;2.25;0.90;;;12.30;68.90;;;;;;5029858;28;20093;-63
2023/04/02 08:18:32;;;;;;;3.17;1.00;;;12.30;68.40;;;;;;5029627;28;20028;-63
2023/04/02 08:20:59;;;;;;;1.80;1.00;;;12.30;68.30;;;;;;5033857;28;20065;-63
2023/04/02 08:23:25;;;;;;;1.33;0.60;;;12.40;68.40;;;;;;5021927;28;20045;-63
2023/04/02 08:25:52;;;;;;;0.90;0.70;;;12.40;68.40;;;;;;5026032;28;20475;-64
2023/04/02 08:28:19;;;;;;;0.75;0.63;;;12.40;68.20;;;;;;5023722;28;20093;-63
2023/04/02 08:30:47;;;;;;;1.25;0.50;;;12.40;67.70;;;;;;5026113;28;20025;-64
2023/04/02 08:33:14;;;;;;;2.78;0.82;;;12.40;67.70;;;;;;5023510;28;20030;-63
2023/04/02 08:35:40;;;;;;;1.40;0.75;;;12.40;68.00;;;;;;5023825;28;20057;-65
2023/04/02 08:38:06;;;;;;;1.88;0.70;;;12.40;68.00;;;;;;5024664;28;20030;-64
2023/04/02 08:40:31;;;;;;;0.82;0.60;;;12.40;67.90;;;;;;5023325;28;20029;-64
2023/04/02 08:43:09;;;;;;;1.75;0.60;;;12.40;67.70;;;;;;5026150;28;20034;-64
2023/04/02 08:45:44;;;;;;;1.88;0.70;;;12.40;67.30;;;;;;5032548;28;20025;-64
2023/04/02 08:48:11;;;;;;;1.05;0.60;;;12.40;67.90;;;;;;5028558;28;20030;-63
2023/04/02 08:50:40;;;;;;;1.15;0.60;;;12.40;67.90;;;;;;5023174;28;20022;-64
2023/04/02 08:53:14;;;;;;;2.05;1.10;;;12.50;68.10;;;;;;5017005;28;20014;-64
2023/04/02 08:55:46;;;;;;;0.50;0.40;;;12.60;68.20;;;;;;5024759;28;20117;-64
2023/04/02 08:58:23;;;;;;;1.08;0.60;;;12.60;67.70;;;;;;5026261;28;20080;-64
2023/04/02 09:00:54;;;;;;;2.20;0.50;;;12.70;67.40;;;;;;5017424;28;20061;-64
2023/04/02 09:03:32;;;;;;;0.75;0.57;;;12.70;67.50;;;;;;5022071;28;20073;-63
2023/04/02 09:06:00;;;;;;;2.45;0.60;;;12.70;67.60;;;;;;5023131;28;20088;-63
2023/04/02 09:08:28;;;;;;;2.00;0.70;;;12.80;67.70;;;;;;5045354;28;20110;-63
2023/04/02 09:11:06;;;;;;;0.77;0.60;;;12.90;67.40;;;;;;5023667;28;20034;-64
2023/04/02 09:13:36;;;;;;;0.70;0.52;;;12.90;68.00;;;;;;5025653;28;20128;-64
2023/04/02 09:16:08;;;;;;;2.13;0.55;;;13.00;67.00;;;;;;5021476;28;20069;-64
2023/04/02 09:18:35;;;;;;;1.20;0.60;;;13.00;66.50;;;;;;5017036;28;20030;-64
2023/04/02 09:21:17;;;;;;;0.75;0.60;;;13.10;66.80;;;;;;5030769;28;20023;-64
2023/04/02 09:23:42;;;;;;;0.57;0.50;;;13.10;66.50;;;;;;5027583;28;20054;-63
2023/04/02 09:26:26;;;;;;;1.10;0.47;;;13.20;66.60;;;;;;5025148;28;20037;-63
2023/04/02 09:28:59;;;;;;;1.33;0.60;;;13.20;66.10;;;;;;5031094;28;20018;-64
2023/04/02 09:31:52;;;;;;;0.70;0.70;;;13.30;65.50;;;;;;5018193;28;20042;-64
2023/04/02 09:34:35;;;;;;;0.65;0.60;;;13.40;65.30;;;;;;5047258;28;20029;-64
2023/04/02 09:37:13;;;;;;;1.35;0.90;;;13.40;64.20;;;;;;5028871;28;20289;-64
2023/04/02 09:39:39;;;;;;;0.70;0.60;;;13.40;64.30;;;;;;5015094;28;20080;-64
2023/04/02 09:42:07;;;;;;;0.93;0.60;;;13.40;64.50;;;;;;5023305;28;20124;-64
2023/04/02 09:44:33;;;;;;;0.60;0.60;;;13.40;64.60;;;;;;5023266;28;20017;-64
2023/04/02 09:47:04;;;;;;;0.95;0.65;;;13.40;64.50;;;;;;5014552;28;20392;-64
2023/04/02 09:49:39;;;;;;;1.35;0.77;;;13.40;64.50;;;;;;5024666;28;20017;-64
2023/04/02 09:52:19;;;;;;;0.93;0.68;;;13.40;63.50;;;;;;5024555;28;20033;-64
2023/04/02 09:54:46;;;;;;;0.77;0.77;;;13.50;64.10;;;;;;5023346;28;20041;-62
2023/04/02 09:57:22;;;;;;;4.07;1.25;;;13.50;64.90;;;;;;5024507;28;20137;-63
2023/04/02 10:00:12;;;;;;;1.27;0.73;;;13.60;64.40;;;;;;5027706;28;20034;-63
2023/04/02 10:02:38;;;;;;;1.13;0.80;;;13.60;63.60;;;;;;5055662;28;20041;-63
2023/04/02 10:05:05;;;;;;;1.17;0.80;;;13.60;64.20;;;;;;5032299;28;20033;-63
2023/04/02 10:07:42;;;;;;;1.75;0.80;;;13.60;64.20;;;;;;5021093;28;20148;-63
2023/04/02 10:10:31;;;;;;;0.98;0.50;;;13.70;63.80;;;;;;5023984;28;20029;-64
2023/04/02 10:13:07;;;;;;;1.00;0.60;;;13.70;63.60;;;;;;5027788;28;20033;-63
2023/04/02 10:15:39;;;;;;;1.77;0.60;;;13.80;63.00;;;;;;5054238;28;20041;-64
2023/04/02 10:18:25;;;;;;;1.55;0.55;;;13.80;63.10;;;;;;5062504;28;20291;-64
2023/04/02 10:20:54;;;;;;;0.80;0.50;;;13.90;62.70;;;;;;5032527;28;20028;-65
2023/04/02 10:23:26;;;;;;;1.13;0.50;;;13.90;63.10;;;;;;5023938;28;20086;-64
2023/04/02 10:26:04;;;;;;;0.43;0.43;;;13.90;63.40;;;;;;5023017;28;20041;-63
2023/04/02 10:28:42;;;;;;;1.17;0.70;;;13.90;63.50;;;;;;5032699;28;20106;-64
2023/04/02 10:31:24;;;;;;;0.45;0.45;;;14.00;64.00;;;;;;5025693;28;20053;-64
2023/04/02 10:33:55;;;;;;;0.50;0.50;;;14.10;63.30;;;;;;5025196;28;20025;-64
2023/04/02 10:36:53;;;;;;;0.65;0.60;;;14.20;63.40;;;;;;5024275;28;20062;-63
2023/04/02 10:39:34;;;;;;;0.98;0.50;;;14.30;62.60;;;;;;5021637;28;20025;-64
2023/04/02 10:42:16;;;;;;;1.17;0.45;;;14.40;63.30;;;;;;4951120;28;20029;-63
2023/04/02 10:44:48;;;;;;;0.63;0.50;;;14.50;61.80;;;;;;5026483;28;20488;-64
2023/04/02 10:47:37;;;;;;;0.47;0.40;;;14.50;61.70;;;;;;5026707;28;20037;-63
2023/04/02 10:50:45;;;;;;;1.08;0.60;;;14.50;61.30;;;;;;5016430;28;20053;-63
2023/04/02 10:53:20;;;;;;;0.40;0.40;;;14.50;61.30;;;;;;5023027;28;20026;-64
2023/04/02 10:56:08;;;;;;;2.13;0.88;;;14.60;61.30;;;;;;5027653;28;20037;-64
2023/04/02 10:58:57;;;;;;;0.95;0.40;;;14.70;61.60;;;;;;5041443;28;20125;-63
2023/04/02 11:01:28;;;;;;;1.27;0.70;;;14.70;61.90;;;;;;5022923;28;20093;-63
2023/04/02 11:04:01;;;;;;;1.17;0.85;;;14.80;61.60;;;;;;5027598;28;20038;-63
2023/04/02 11:06:36;;;;;;;0.60;0.60;;;14.80;61.50;;;;;;5030516;28;20050;-64
2023/04/02 11:09:06;;;;;;;1.13;0.57;;;14.90;61.80;;;;;;5029872;28;20098;-64
2023/04/02 11:11:38;;;;;;;1.10;0.40;;;15.00;61.40;;;;;;5029300;28;20081;-64
2023/04/02 11:14:10;;;;;;;0.35;0.35;;;15.10;61.10;;;;;;5026290;28;20030;-65
2023/04/02 11:16:36;;;;;;;1.27;0.50;;;15.10;60.30;;;;;;5029007;28;20056;-64
2023/04/02 11:19:16;;;;;;;1.63;0.50;;;15.10;59.90;;;;;;5040887;28;20515;-64
2023/04/02 11:22:05;;;;;;;1.27;0.50;;;15.10;59.80;;;;;;5027350;28;20439;-64
2023/04/02 11:24:46;;;;;;;0.63;0.40;;;15.00;59.50;;;;;;5031863;28;20047;-64
2023/04/02 11:27:16;;;;;;;1.42;0.50;;;15.00;59.30;;;;;;5022628;28;20026;-64
2023/04/02 11:30:06;;;;;;;0.65;0.38;;;14.90;60.20;;;;;;5024012;28;20024;-64
2023/04/02 11:32:38;;;;;;;0.93;0.50;;;14.90;59.30;;;;;;5029820;28;20038;-64
2023/04/02 11:35:30;;;;;;;0.32;0.32;;;14.90;59.80;;;;;;5027841;28;20041;-64
2023/04/02 11:37:59;;;;;;;0.30;0.30;;;14.90;59.60;;;;;;5026620;28;20044;-63
2023/04/02 11:40:47;;;;;;;0.40;0.30;;;14.90;59.60;;;;;;5027022;28;20026;-64
2023/04/02 11:43:31;;;;;;;0.40;0.40;;;14.90;59.40;;;;;;5028901;28;20033;-64
2023/04/02 11:46:17;;;;;;;0.40;0.40;;;14.90;59.20;;;;;;5029863;28;20021;-65
2023/04/02 11:48:43;;;;;;;0.40;0.40;;;15.00;59.60;;;;;;5018093;28;20033;-63
2023/04/02 11:51:21;;;;;;;0.90;0.57;;;15.00;59.50;;;;;;5028119;28;20034;-64
2023/04/02 11:53:50;;;;;;;0.40;0.40;;;15.00;59.20;;;;;;5067478;28;20120;-65
2023/04/02 11:56:52;;;;;;;3.05;0.50;;;15.00;59.60;;;;;;5027420;28;20036;-64
2023/04/02 11:59:31;;;;;;;0.50;0.50;;;15.00;58.90;;;;;;5026001;28;20036;-65
2023/04/02 12:01:56;;;;;;;0.95;0.50;;;15.00;59.40;;;;;;5032633;28;20021;-64
2023/04/02 12:05:16;;;;;;;0.65;0.50;;;15.00;58.90;;;;;;5025023;28;20116;-63
2023/04/02 12:08:16;;;;;;;0.40;0.40;;;14.90;58.40;;;;;;5044962;28;20029;-66
2023/04/02 12:10:57;;;;;;;0.65;0.50;;;14.90;58.90;;;;;;5040127;28;20052;-64
2023/04/02 12:13:38;;;;;;;1.02;0.60;;;14.80;59.20;;;;;;5040544;28;20048;-64
2023/04/02 12:16:09;;;;;;;0.40;0.40;;;14.80;59.50;;;;;;5042958;28;20033;-64
2023/04/02 12:18:40;;;;;;;0.90;0.50;;;14.90;59.80;;;;;;5025132;28;20040;-64
2023/04/02 12:21:06;;;;;;;0.98;0.65;;;14.80;59.60;;;;;;5036638;28;20089;-64
2023/04/02 12:23:35;;;;;;;1.63;0.60;;;14.80;59.10;;;;;;5037274;28;20159;-64
2023/04/02 12:26:07;;;;;;;0.60;0.60;;;14.70;59.00;;;;;;5036465;28;20038;-63
2023/04/02 12:28:33;;;;;;;2.03;1.20;;;14.70;59.20;;;;;;5033805;28;20089;-64
2023/04/02 12:31:19;;;;;;;3.50;1.92;;;14.70;59.70;;;;;;5026221;28;20057;-63
2023/04/02 12:33:45;;;;;;;1.60;0.77;;;14.70;59.60;;;;;;5042107;28;20018;-65
2023/04/02 12:36:12;;;;;;;0.90;0.70;;;14.70;60.40;;;;;;5041135;28;20101;-64
2023/04/02 12:38:56;;;;;;;0.60;0.60;;;14.70;59.70;;;;;;5025168;28;20071;-65
2023/04/02 12:41:31;;;;;;;2.53;0.50;;;14.80;59.70;;;;;;5023985;28;20033;-64
2023/04/02 12:44:14;;;;;;;0.80;0.80;;;14.90;59.20;;;;;;5025300;28;20056;-64
2023/04/02 12:46:41;;;;;;;1.27;0.68;;;14.90;59.30;;;;;;5030129;28;20018;-64
2023/04/02 12:49:28;;;;;;;0.55;0.50;;;14.90;59.50;;;;;;5022008;28;20026;-64
2023/04/02 12:51:55;;;;;;;0.70;0.70;;;14.80;59.40;;;;;;5021801;28;20038;-63
2023/04/02 12:54:20;;;;;;;2.05;1.15;;;14.80;59.50;;;;;;5028668;28;20041;-64
2023/04/02 12:56:47;;;;;;;1.02;0.50;;;14.70;59.60;;;;;;5025210;28;20030;-64
2023/04/02 12:59:27;;;;;;;0.70;0.50;;;14.70;59.90;;;;;;5029605;28;20369;-64
2023/04/02 13:01:58;;;;;;;1.17;0.55;;;14.60;59.70;;;;;;5022212;28;20022;-64
2023/04/02 13:04:23;;;;;;;3.50;0.40;;;14.60;60.30;;;;;;5024384;28;20033;-64
2023/04/02 13:06:53;;;;;;;1.00;0.50;;;14.60;60.80;;;;;;5023608;28;20038;-65
2023/04/02 13:09:40;;;;;;;2.28;0.52;;;14.60;60.90;;;;;;5028971;28;20845;-63
2023/04/02 13:12:25;;;;;;;1.38;0.50;;;14.70;60.70;;;;;;5028168;28;20034;-64
2023/04/02 13:14:55;;;;;;;0.90;0.50;;;14.70;59.70;;;;;;5021595;28;20026;-65
2023/04/02 13:17:40;;;;;;;0.45;0.45;;;14.70;59.80;;;;;;5027014;28;20112;-65
2023/04/02 13:20:27;;;;;;;1.95;0.60;;;14.60;59.40;;;;;;5017273;28;20029;-65
2023/04/02 13:22:53;;;;;;;0.93;0.63;;;14.60;59.60;;;;;;5018594;28;20049;-65
2023/04/02 13:25:27;;;;;;;0.70;0.70;;;14.50;59.90;;;;;;5038287;28;20030;-64
2023/04/02 13:27:53;;;;;;;1.58;0.80;;;14.40;60.10;;;;;;5024225;28;20022;-64
2023/04/02 13:30:24;;;;;;;0.55;0.50;;;14.40;60.30;;;;;;5033003;28;20035;-65
2023/04/02 13:32:50;;;;;;;0.63;0.52;;;14.30;60.50;;;;;;5022506;28;20033;-63